Time;durP1;ratioP1;P1;durP2;ratioP2;P2;SDS_P1;SDS_P2;PMS_P1;PMS_P2;Temp;Humidity;BMP_temperature;BMP_pressure;BME280_temperature;BME280_humidity;BME280_pressure;Samples;Min_cycle;Max_cycle;Signal;HPM_P1;HPM_P2
2023/04/28 00:01:15;;;;;;;5.30;4.13;;;6.30;96.80;;;;;;5006781;28;20198;-83
2023/04/28 00:03:41;;;;;;;2.80;2.60;;;6.20;96.80;;;;;;4994173;28;20565;-85
2023/04/28 00:06:07;;;;;;;2.60;2.40;;;6.20;96.60;;;;;;4993857;28;20416;-82
2023/04/28 00:08:32;;;;;;;1.30;1.20;;;6.30;96.50;;;;;;4986692;28;20173;-83
2023/04/28 00:10:58;;;;;;;2.00;1.87;;;6.30;96.40;;;;;;4986225;28;20694;-82
2023/04/28 00:13:23;;;;;;;1.73;1.63;;;6.30;96.50;;;;;;5008089;28;20209;-82
2023/04/28 00:15:51;;;;;;;1.87;1.80;;;6.30;96.60;;;;;;5003343;28;20273;-84
2023/04/28 00:18:17;;;;;;;7.33;2.87;;;6.20;96.60;;;;;;5003440;28;20176;-81
2023/04/28 00:20:43;;;;;;;4.43;2.50;;;6.30;96.80;;;;;;4982237;28;20503;-81
2023/04/28 00:23:08;;;;;;;3.90;3.50;;;6.20;96.80;;;;;;5010481;28;20475;-82
2023/04/28 00:25:34;;;;;;;5.83;3.10;;;6.20;97.00;;;;;;4997828;28;20198;-84
2023/04/28 00:28:00;;;;;;;2.37;2.17;;;6.20;97.20;;;;;;4991908;28;20182;-81
2023/04/28 00:30:26;;;;;;;4.00;1.87;;;6.20;97.30;;;;;;4998140;28;20497;-83
2023/04/28 00:32:51;;;;;;;1.93;1.40;;;6.10;97.30;;;;;;4990385;28;20436;-83
2023/04/28 00:35:17;;;;;;;7.53;2.40;;;6.10;97.30;;;;;;4973737;28;20217;-84
2023/04/28 00:37:43;;;;;;;4.47;2.87;;;6.10;97.30;;;;;;4978059;28;20181;-86
2023/04/28 00:40:08;;;;;;;2.07;1.40;;;6.00;97.30;;;;;;4976899;28;20273;-84
2023/04/28 00:42:34;;;;;;;3.80;3.27;;;6.00;97.30;;;;;;5002798;28;20626;-82
2023/04/28 00:45:04;;;;;;;3.13;2.60;;;6.00;97.30;;;;;;5002708;28;20287;-85
2023/04/28 00:47:31;;;;;;;4.00;3.43;;;6.00;97.30;;;;;;5004563;28;20351;-82
2023/04/28 00:49:58;;;;;;;2.53;2.33;;;5.90;97.30;;;;;;4984018;28;20432;-83
2023/04/28 00:52:23;;;;;;;4.80;2.90;;;5.90;97.30;;;;;;4998759;28;20464;-82
2023/04/28 00:54:49;;;;;;;6.17;2.27;;;5.90;97.30;;;;;;4974706;28;20485;-82
2023/04/28 00:57:14;;;;;;;2.77;2.57;;;5.80;97.30;;;;;;4992902;28;20637;-82
2023/04/28 00:59:40;;;;;;;2.73;2.50;;;5.80;97.30;;;;;;4989982;28;20179;-83
2023/04/28 01:02:06;;;;;;;4.83;3.20;;;5.70;97.30;;;;;;4997555;28;20190;-85
2023/04/28 01:04:32;;;;;;;2.00;1.80;;;5.70;97.30;;;;;;4994335;28;20562;-85
2023/04/28 01:06:59;;;;;;;2.50;2.30;;;5.70;97.30;;;;;;4992726;28;20439;-85
2023/04/28 01:09:25;;;;;;;3.63;3.20;;;5.60;97.30;;;;;;4989230;28;20900;-81
2023/04/28 01:11:50;;;;;;;4.73;2.90;;;5.60;97.30;;;;;;4992663;28;20432;-82
2023/04/28 01:14:16;;;;;;;4.30;2.60;;;5.60;97.30;;;;;;4979691;28;20287;-82
2023/04/28 01:16:42;;;;;;;3.13;2.60;;;5.50;97.30;;;;;;4994463;28;20182;-82
2023/04/28 01:19:13;;;;;;;2.40;2.17;;;5.50;97.30;;;;;;4986142;28;20185;-82
2023/04/28 01:21:38;;;;;;;2.67;2.47;;;5.40;97.30;;;;;;4988043;28;20469;-85
2023/04/28 01:24:05;;;;;;;5.43;4.17;;;5.40;97.30;;;;;;4999616;28;20429;-83
2023/04/28 01:26:30;;;;;;;3.13;2.70;;;5.40;97.30;;;;;;4995451;28;20188;-84
2023/04/28 01:28:56;;;;;;;3.40;2.80;;;5.40;97.30;;;;;;4998692;28;20504;-83
2023/04/28 01:31:21;;;;;;;4.60;3.03;;;5.30;97.30;;;;;;4996591;28;20285;-81
2023/04/28 01:33:47;;;;;;;2.60;2.40;;;5.30;97.30;;;;;;4998174;28;20241;-84
2023/04/28 01:36:12;;;;;;;2.70;2.50;;;5.20;97.30;;;;;;4975833;28;20379;-86
2023/04/28 01:38:38;;;;;;;2.70;1.73;;;5.20;97.30;;;;;;4994330;28;20677;-82
2023/04/28 01:41:03;;;;;;;2.50;1.83;;;5.20;97.30;;;;;;4984292;28;20205;-85
2023/04/28 01:43:29;;;;;;;2.13;2.00;;;5.20;97.30;;;;;;5002462;28;20182;-84
2023/04/28 01:45:55;;;;;;;3.10;2.80;;;5.20;97.30;;;;;;4992811;28;20174;-82
2023/04/28 01:48:20;;;;;;;2.50;1.73;;;5.10;97.30;;;;;;4986268;28;20224;-83
2023/04/28 01:50:46;;;;;;;5.13;2.63;;;5.10;97.30;;;;;;4993669;28;20181;-82
2023/04/28 01:53:11;;;;;;;1.70;1.60;;;5.10;97.30;;;;;;4969903;28;20325;-82
2023/04/28 01:55:37;;;;;;;2.30;1.80;;;5.10;97.30;;;;;;4989268;28;20212;-83
2023/04/28 01:58:03;;;;;;;5.63;3.00;;;5.10;97.30;;;;;;4982943;28;20186;-83
2023/04/28 02:00:28;;;;;;;1.90;1.80;;;5.10;97.30;;;;;;4987989;28;20428;-83
2023/04/28 02:02:54;;;;;;;2.40;2.20;;;5.10;97.30;;;;;;5003535;28;20201;-86
2023/04/28 02:05:20;;;;;;;2.57;2.37;;;5.10;97.30;;;;;;4996137;28;20193;-83
2023/04/28 02:07:45;;;;;;;2.47;2.30;;;5.20;97.30;;;;;;4996262;28;20192;-83
2023/04/28 02:10:11;;;;;;;1.23;1.13;;;5.20;97.30;;;;;;4993941;28;20178;-85
2023/04/28 02:12:36;;;;;;;3.10;2.00;;;5.20;97.30;;;;;;4996679;28;20205;-86
2023/04/28 02:15:02;;;;;;;4.47;4.17;;;5.20;97.30;;;;;;4998162;28;20464;-83
2023/04/28 02:17:29;;;;;;;3.50;3.30;;;5.20;97.30;;;;;;4987387;28;20209;-81
2023/04/28 02:19:55;;;;;;;8.93;4.10;;;5.20;97.30;;;;;;4997854;28;20231;-83
2023/04/28 02:22:21;;;;;;;2.30;2.03;;;5.30;97.30;;;;;;4976432;28;20437;-85
2023/04/28 02:24:47;;;;;;;10.60;2.93;;;5.30;97.30;;;;;;4989981;28;20186;-81
2023/04/28 02:27:12;;;;;;;1.97;1.87;;;5.30;97.30;;;;;;5011026;28;20523;-85
2023/04/28 02:29:38;;;;;;;2.93;2.73;;;5.30;97.30;;;;;;4987202;28;20204;-83
2023/04/28 02:32:03;;;;;;;2.73;2.57;;;5.40;97.30;;;;;;4976191;28;20212;-81
2023/04/28 02:34:29;;;;;;;5.87;3.93;;;5.40;97.30;;;;;;5001232;28;20378;-81
2023/04/28 02:36:55;;;;;;;2.80;2.20;;;5.40;97.30;;;;;;5012990;28;20630;-81
2023/04/28 02:39:21;;;;;;;1.83;1.73;;;5.50;97.30;;;;;;4999856;28;20177;-83
2023/04/28 02:41:47;;;;;;;9.80;2.90;;;5.50;97.30;;;;;;5012641;28;20208;-83
2023/04/28 02:44:12;;;;;;;2.43;2.23;;;5.60;97.30;;;;;;5006761;28;20424;-86
2023/04/28 02:46:37;;;;;;;26.57;3.43;;;5.60;97.30;;;;;;4998261;28;20721;-82
2023/04/28 02:49:03;;;;;;;6.07;2.50;;;5.60;97.30;;;;;;4981609;28;20178;-82
2023/04/28 02:51:28;;;;;;;10.80;3.50;;;5.60;97.30;;;;;;5003406;28;20221;-82
2023/04/28 02:53:54;;;;;;;9.40;4.70;;;5.60;97.30;;;;;;4980097;28;20225;-82
2023/04/28 02:56:20;;;;;;;5.17;4.87;;;5.60;97.30;;;;;;4982359;28;20182;-82
2023/04/28 02:58:45;;;;;;;5.43;3.50;;;5.70;97.30;;;;;;5000577;28;20178;-81
2023/04/28 03:01:11;;;;;;;5.13;2.27;;;5.60;97.30;;;;;;4980749;28;20581;-82
2023/04/28 03:03:36;;;;;;;3.40;3.20;;;5.70;97.30;;;;;;4984085;28;20248;-82
2023/04/28 03:06:02;;;;;;;8.73;2.87;;;5.70;97.20;;;;;;5008217;28;20197;-82
2023/04/28 03:08:27;;;;;;;2.77;2.27;;;5.70;97.20;;;;;;4976863;28;20182;-84
2023/04/28 03:10:52;;;;;;;4.27;3.43;;;5.80;97.10;;;;;;5000115;28;20185;-85
2023/04/28 03:13:18;;;;;;;3.73;1.83;;;5.80;97.10;;;;;;4992766;28;20713;-84
2023/04/28 03:15:43;;;;;;;6.73;3.87;;;5.80;97.20;;;;;;5001906;28;20205;-80
2023/04/28 03:18:09;;;;;;;3.20;2.70;;;5.80;97.30;;;;;;4982078;28;20190;-81
2023/04/28 03:20:35;;;;;;;7.60;3.67;;;5.70;97.30;;;;;;5002290;28;20174;-84
2023/04/28 03:23:01;;;;;;;3.90;3.10;;;5.70;97.30;;;;;;4981627;28;20843;-82
2023/04/28 03:25:26;;;;;;;3.63;3.33;;;5.70;97.30;;;;;;5002258;28;20516;-81
2023/04/28 03:27:52;;;;;;;2.50;2.03;;;5.70;97.30;;;;;;4988019;28;20911;-82
2023/04/28 03:30:17;;;;;;;4.20;2.60;;;5.70;97.30;;;;;;4991274;28;20200;-82
2023/04/28 03:32:43;;;;;;;2.97;2.77;;;5.70;97.30;;;;;;5001800;28;20205;-80
2023/04/28 03:35:08;;;;;;;2.63;2.33;;;5.60;97.30;;;;;;5000750;28;20208;-83
2023/04/28 03:37:34;;;;;;;2.77;2.57;;;5.60;97.30;;;;;;4977995;28;20782;-81
2023/04/28 03:39:59;;;;;;;4.03;3.77;;;5.60;97.30;;;;;;4995765;28;20186;-84
2023/04/28 03:42:25;;;;;;;4.77;3.93;;;5.70;97.30;;;;;;4992152;28;20248;-81
2023/04/28 03:44:50;;;;;;;12.03;3.97;;;5.60;97.30;;;;;;5003778;28;20182;-81
2023/04/28 03:47:16;;;;;;;5.80;4.67;;;5.70;97.30;;;;;;4981653;28;20232;-84
2023/04/28 03:49:41;;;;;;;4.13;3.67;;;5.70;97.30;;;;;;4988124;28;20265;-83
2023/04/28 03:52:07;;;;;;;6.60;3.90;;;5.70;97.30;;;;;;4978497;28;20312;-83
2023/04/28 03:54:32;;;;;;;14.40;3.17;;;5.70;97.30;;;;;;4984123;28;20217;-85
2023/04/28 03:56:58;;;;;;;4.63;3.00;;;5.80;97.30;;;;;;4990846;28;20704;-85
2023/04/28 03:59:24;;;;;;;2.80;2.60;;;5.80;97.30;;;;;;4992221;28;20174;-82
2023/04/28 04:01:49;;;;;;;2.67;2.47;;;5.80;97.20;;;;;;4997779;28;20441;-86
2023/04/28 04:04:15;;;;;;;9.70;2.73;;;5.90;97.10;;;;;;4995812;28;20225;-81
2023/04/28 04:06:40;;;;;;;5.60;4.70;;;6.00;96.80;;;;;;4980482;28;20269;-83
2023/04/28 04:09:06;;;;;;;4.73;2.73;;;6.00;96.60;;;;;;5004461;28;20285;-81
2023/04/28 04:11:31;;;;;;;3.43;2.40;;;6.10;96.30;;;;;;4977743;28;20226;-86
2023/04/28 04:14:06;;;;;;;3.03;2.50;;;6.10;96.20;;;;;;4994665;28;20233;-83
2023/04/28 04:16:31;;;;;;;3.47;3.27;;;6.10;96.20;;;;;;4976102;28;20230;-82
2023/04/28 04:18:57;;;;;;;7.70;4.00;;;6.20;96.10;;;;;;4994114;28;20933;-82
2023/04/28 04:21:22;;;;;;;3.63;2.63;;;6.20;96.10;;;;;;4985510;28;20205;-83
2023/04/28 04:23:48;;;;;;;8.20;5.57;;;6.20;95.80;;;;;;4974703;28;20201;-88
2023/04/28 04:26:13;;;;;;;9.77;5.63;;;6.30;95.80;;;;;;4988801;28;20185;-82
2023/04/28 04:28:39;;;;;;;3.53;3.33;;;6.30;95.60;;;;;;4977549;28;20564;-85
2023/04/28 04:31:05;;;;;;;5.97;3.40;;;6.40;95.60;;;;;;4979561;28;20197;-82
2023/04/28 04:33:30;;;;;;;7.10;3.50;;;6.40;95.60;;;;;;4976120;28;20218;-83
2023/04/28 04:35:56;;;;;;;7.37;3.03;;;6.40;95.60;;;;;;4993766;28;20227;-81
2023/04/28 04:38:21;;;;;;;4.90;3.77;;;6.50;95.60;;;;;;4976400;28;20774;-84
2023/04/28 04:40:47;;;;;;;4.17;3.67;;;6.50;95.70;;;;;;4977553;28;20269;-82
2023/04/28 04:43:12;;;;;;;3.03;2.17;;;6.50;95.40;;;;;;4994755;28;20205;-84
2023/04/28 04:45:38;;;;;;;6.10;3.60;;;6.60;95.30;;;;;;4977890;28;20186;-82
2023/04/28 04:48:03;;;;;;;3.80;3.60;;;6.60;95.30;;;;;;4982911;28;20192;-84
2023/04/28 04:50:29;;;;;;;5.93;4.27;;;6.70;95.10;;;;;;4982143;28;20182;-81
2023/04/28 04:52:56;;;;;;;3.80;3.60;;;6.70;95.10;;;;;;4992895;28;20717;-82
2023/04/28 04:55:21;;;;;;;2.40;2.23;;;6.70;94.90;;;;;;4979175;28;20261;-84
2023/04/28 04:57:47;;;;;;;2.87;2.50;;;6.80;94.90;;;;;;4976752;28;20418;-83
2023/04/28 05:00:13;;;;;;;10.33;4.60;;;6.80;95.30;;;;;;4975816;28;20662;-82
2023/04/28 05:02:38;;;;;;;3.33;3.03;;;6.80;96.00;;;;;;4991205;28;20210;-81
2023/04/28 05:05:05;;;;;;;13.33;4.27;;;6.80;96.50;;;;;;4993356;28;20781;-80
2023/04/28 05:07:30;;;;;;;4.33;3.00;;;6.80;96.70;;;;;;4996047;28;20599;-84
2023/04/28 05:09:56;;;;;;;5.17;3.47;;;6.70;96.90;;;;;;4978029;28;20469;-81
2023/04/28 05:12:21;;;;;;;5.37;2.93;;;6.70;97.00;;;;;;4980417;28;20210;-82
2023/04/28 05:14:47;;;;;;;6.90;3.37;;;6.70;97.10;;;;;;4995486;28;20256;-82
2023/04/28 05:17:12;;;;;;;5.17;2.83;;;6.80;97.30;;;;;;4987300;28;20174;-81
2023/04/28 05:19:38;;;;;;;2.93;2.50;;;6.80;97.30;;;;;;4988713;28;20186;-82
2023/04/28 05:22:03;;;;;;;5.60;3.67;;;6.80;97.30;;;;;;4980476;28;20189;-84
2023/04/28 05:24:29;;;;;;;3.67;2.30;;;6.80;97.30;;;;;;4975290;28;20721;-79
2023/04/28 05:26:57;;;;;;;7.43;4.00;;;6.80;97.30;;;;;;4990329;28;20289;-81
2023/04/28 05:29:23;;;;;;;12.93;4.40;;;6.80;97.30;;;;;;4981585;28;20186;-83
2023/04/28 05:31:48;;;;;;;8.90;4.30;;;6.90;97.30;;;;;;4972201;28;20426;-84
2023/04/28 05:34:14;;;;;;;8.63;5.23;;;6.90;97.30;;;;;;4977585;28;20221;-83
2023/04/28 05:36:40;;;;;;;3.10;2.83;;;6.90;97.30;;;;;;4985179;28;20185;-83
2023/04/28 05:39:06;;;;;;;7.77;4.87;;;7.00;97.30;;;;;;4980130;28;20185;-84
2023/04/28 05:41:33;;;;;;;6.87;4.43;;;7.10;97.30;;;;;;4987808;28;20532;-82
2023/04/28 05:43:59;;;;;;;19.87;6.50;;;7.10;97.30;;;;;;4977318;28;20179;-85
2023/04/28 05:46:24;;;;;;;1.77;1.67;;;7.20;97.30;;;;;;4979464;28;20426;-80
2023/04/28 05:48:50;;;;;;;9.07;3.50;;;7.40;97.30;;;;;;4978617;28;20570;-85
2023/04/28 05:51:15;;;;;;;3.20;2.93;;;7.50;97.30;;;;;;4979075;28;20656;-84
2023/04/28 05:53:41;;;;;;;2.70;2.10;;;7.60;97.30;;;;;;4983319;28;20178;-84
2023/04/28 05:56:07;;;;;;;3.63;3.43;;;7.80;97.10;;;;;;4988353;28;20170;-85
2023/04/28 05:58:32;;;;;;;2.03;1.80;;;7.90;97.00;;;;;;4989385;28;20181;-81
2023/04/28 06:00:58;;;;;;;5.50;3.70;;;8.00;96.60;;;;;;4992144;28;20722;-82
2023/04/28 06:03:24;;;;;;;4.07;3.10;;;8.20;96.30;;;;;;4975898;28;20599;-80
2023/04/28 06:05:49;;;;;;;6.40;2.87;;;8.30;95.60;;;;;;4981943;28;20185;-82
2023/04/28 06:08:15;;;;;;;4.60;2.43;;;8.40;95.20;;;;;;4985065;28;20187;-84
2023/04/28 06:10:40;;;;;;;2.43;2.30;;;8.50;95.00;;;;;;4974227;28;20217;-82
2023/04/28 06:13:06;;;;;;;3.90;3.63;;;8.70;94.70;;;;;;4978054;28;20727;-81
2023/04/28 06:15:32;;;;;;;8.90;4.10;;;8.80;94.10;;;;;;4989109;28;20264;-85
2023/04/28 06:17:58;;;;;;;10.43;2.57;;;9.00;93.30;;;;;;4974759;28;20198;-85
2023/04/28 06:20:24;;;;;;;7.73;2.50;;;9.20;92.50;;;;;;4989881;28;20780;-85
2023/04/28 06:22:50;;;;;;;8.40;4.07;;;9.40;91.90;;;;;;4999495;28;20201;-81
2023/04/28 06:25:16;;;;;;;4.83;4.00;;;9.60;91.50;;;;;;4981153;28;20221;-80
2023/04/28 06:27:41;;;;;;;3.13;2.40;;;9.70;90.60;;;;;;4994259;28;20425;-81
2023/04/28 06:30:07;;;;;;;2.13;1.97;;;9.90;90.20;;;;;;4989151;28;20433;-82
2023/04/28 06:32:33;;;;;;;6.60;2.80;;;9.90;89.90;;;;;;4993085;28;20206;-81
2023/04/28 06:34:58;;;;;;;2.67;2.47;;;10.00;89.50;;;;;;4990089;28;20457;-82
2023/04/28 06:37:24;;;;;;;3.00;2.47;;;10.00;89.40;;;;;;4983862;28;20178;-84
2023/04/28 06:39:49;;;;;;;1.83;1.60;;;10.00;89.80;;;;;;4981083;28;20178;-80
2023/04/28 06:42:17;;;;;;;7.70;3.47;;;10.00;90.20;;;;;;4989602;28;20223;-81
2023/04/28 06:44:43;;;;;;;11.20;4.27;;;10.10;90.10;;;;;;4980979;28;20189;-82
2023/04/28 06:47:09;;;;;;;4.23;3.97;;;10.20;90.10;;;;;;4981651;28;20537;-82
2023/04/28 06:49:34;;;;;;;11.17;3.33;;;10.30;90.80;;;;;;4989511;28;20417;-85
2023/04/28 06:52:00;;;;;;;8.43;3.90;;;10.40;90.50;;;;;;4996348;28;20713;-85
2023/04/28 06:54:25;;;;;;;6.83;3.07;;;10.50;90.00;;;;;;4988733;28;20214;-85
2023/04/28 06:56:51;;;;;;;22.30;4.60;;;10.60;89.80;;;;;;4991170;28;20204;-84
2023/04/28 06:59:16;;;;;;;5.63;4.30;;;10.70;89.20;;;;;;4983150;28;20178;-85
2023/04/28 07:01:42;;;;;;;3.53;2.80;;;10.70;89.10;;;;;;4998102;28;20289;-82
2023/04/28 07:04:07;;;;;;;2.37;2.17;;;10.80;89.40;;;;;;4994954;28;20276;-83
2023/04/28 07:06:33;;;;;;;3.13;2.60;;;10.80;88.80;;;;;;4993059;28;20183;-85
2023/04/28 07:08:58;;;;;;;3.40;3.20;;;10.90;89.40;;;;;;4991040;28;20179;-84
2023/04/28 07:11:24;;;;;;;3.53;2.30;;;11.00;89.30;;;;;;4993876;28;20229;-81
2023/04/28 07:13:50;;;;;;;2.67;2.47;;;11.10;89.90;;;;;;4995957;28;20197;-81
2023/04/28 07:16:17;;;;;;;3.27;2.60;;;11.20;89.10;;;;;;4986031;28;20205;-81
2023/04/28 07:18:43;;;;;;;5.57;4.20;;;11.30;88.20;;;;;;4977725;28;20493;-81
2023/04/28 07:21:09;;;;;;;4.50;3.17;;;11.30;88.30;;;;;;4985606;28;20442;-82
2023/04/28 07:23:37;;;;;;;5.47;4.13;;;11.40;88.50;;;;;;4973502;28;20689;-81
2023/04/28 07:26:03;;;;;;;2.07;1.90;;;11.40;88.40;;;;;;4996429;28;20596;-81
2023/04/28 07:28:28;;;;;;;4.87;3.10;;;11.50;88.70;;;;;;4980281;28;20690;-81
2023/04/28 07:30:53;;;;;;;2.40;2.17;;;11.50;88.70;;;;;;4991583;28;20182;-82
2023/04/28 07:33:19;;;;;;;5.83;3.70;;;11.60;89.10;;;;;;4994991;28;20213;-81
2023/04/28 07:35:45;;;;;;;9.40;4.07;;;11.70;88.20;;;;;;4992117;28;20210;-83
2023/04/28 07:38:10;;;;;;;7.33;3.60;;;11.80;88.40;;;;;;4982410;28;20189;-81
2023/04/28 07:40:36;;;;;;;2.80;2.60;;;11.90;88.80;;;;;;4977703;28;20179;-83
2023/04/28 07:43:02;;;;;;;2.07;1.93;;;11.90;88.00;;;;;;4997583;28;20194;-85
2023/04/28 07:45:28;;;;;;;2.40;2.20;;;12.00;86.80;;;;;;5001134;28;20199;-83
2023/04/28 07:47:53;;;;;;;2.57;2.37;;;12.00;87.30;;;;;;4996025;28;20946;-81
2023/04/28 07:50:19;;;;;;;6.30;3.10;;;12.10;87.30;;;;;;4989642;28;20647;-82
2023/04/28 07:52:45;;;;;;;5.27;4.10;;;12.20;87.30;;;;;;4975178;28;20222;-84
2023/04/28 07:55:10;;;;;;;4.60;4.00;;;12.30;87.30;;;;;;4979523;28;20806;-84
2023/04/28 07:57:36;;;;;;;9.63;4.40;;;12.40;88.10;;;;;;4980990;28;20175;-80
2023/04/28 08:00:02;;;;;;;5.80;2.90;;;12.50;87.30;;;;;;4991094;28;20178;-81
2023/04/28 08:02:27;;;;;;;6.87;3.43;;;12.70;87.80;;;;;;4976430;28;20202;-84
2023/04/28 08:04:53;;;;;;;6.20;4.37;;;12.90;87.90;;;;;;4991002;28;20422;-81
2023/04/28 08:07:19;;;;;;;5.73;3.07;;;13.10;87.40;;;;;;4983866;28;20193;-81
2023/04/28 08:09:46;;;;;;;6.07;3.50;;;13.30;87.40;;;;;;4986407;28;20186;-85
2023/04/28 08:12:13;;;;;;;3.90;2.73;;;13.40;86.00;;;;;;4995040;28;20190;-81
2023/04/28 08:14:39;;;;;;;3.47;2.90;;;13.50;84.80;;;;;;4976116;28;20450;-82
2023/04/28 08:17:04;;;;;;;7.30;2.60;;;13.50;86.30;;;;;;4998030;28;20446;-85
2023/04/28 08:19:30;;;;;;;3.40;3.20;;;13.60;85.30;;;;;;4998796;28;20183;-81
2023/04/28 08:21:55;;;;;;;8.23;3.30;;;13.70;85.50;;;;;;4994912;28;20194;-82
2023/04/28 08:24:21;;;;;;;7.00;4.10;;;13.70;85.60;;;;;;4987837;28;20273;-81
2023/04/28 08:26:46;;;;;;;14.53;4.40;;;13.70;85.80;;;;;;4976977;28;20586;-82
2023/04/28 08:29:12;;;;;;;1.60;1.50;;;13.70;86.10;;;;;;4988003;28;20650;-82
2023/04/28 08:31:37;;;;;;;9.30;4.10;;;13.60;85.20;;;;;;4978734;28;20266;-81
2023/04/28 08:34:03;;;;;;;5.40;3.23;;;13.60;85.70;;;;;;4998287;28;20296;-82
2023/04/28 08:36:31;;;;;;;8.20;2.90;;;13.60;86.10;;;;;;4992926;28;20185;-86
2023/04/28 08:39:02;;;;;;;5.37;3.03;;;13.60;86.70;;;;;;4986305;28;20590;-80
2023/04/28 08:41:31;;;;;;;4.73;2.60;;;13.60;85.50;;;;;;4988140;28;20434;-85
2023/04/28 08:43:57;;;;;;;3.00;2.80;;;13.70;86.70;;;;;;4969949;28;20469;-84
2023/04/28 08:46:26;;;;;;;6.40;2.47;;;13.70;86.70;;;;;;4978170;28;20974;-80
2023/04/28 08:48:58;;;;;;;4.30;3.00;;;13.80;87.10;;;;;;4991154;28;20181;-81
2023/04/28 08:51:35;;;;;;;7.50;2.47;;;13.80;86.30;;;;;;4983122;28;20453;-85
2023/04/28 08:54:05;;;;;;;3.10;2.33;;;13.80;85.80;;;;;;4981668;28;20418;-85
2023/04/28 08:56:34;;;;;;;2.87;1.80;;;13.80;85.70;;;;;;4980182;28;20425;-84
2023/04/28 08:59:04;;;;;;;5.13;3.40;;;13.70;84.50;;;;;;5002987;28;20467;-81
2023/04/28 09:01:30;;;;;;;4.03;2.23;;;13.60;84.70;;;;;;4978733;28;20446;-81
2023/04/28 09:03:56;;;;;;;4.57;3.10;;;13.50;85.80;;;;;;4990528;28;20418;-80
2023/04/28 09:06:22;;;;;;;2.70;2.40;;;13.50;86.70;;;;;;4990753;28;21026;-80
2023/04/28 09:08:48;;;;;;;2.77;2.57;;;13.40;87.20;;;;;;4991681;28;20186;-84
2023/04/28 09:11:15;;;;;;;7.20;3.77;;;13.40;87.10;;;;;;4990712;28;20954;-85
2023/04/28 09:13:40;;;;;;;1.60;1.57;;;13.30;87.80;;;;;;4985399;28;20624;-80
2023/04/28 09:16:06;;;;;;;3.83;2.70;;;13.40;88.90;;;;;;4999217;28;20793;-84
2023/04/28 09:18:32;;;;;;;2.43;2.17;;;13.30;88.70;;;;;;4997177;28;20178;-83
2023/04/28 09:21:08;;;;;;;3.07;2.60;;;13.40;89.80;;;;;;4977323;28;20659;-84
2023/04/28 09:23:48;;;;;;;1.73;1.53;;;13.40;90.50;;;;;;4989983;28;20182;-80
2023/04/28 09:26:13;;;;;;;3.00;2.63;;;13.40;89.50;;;;;;4966830;28;20417;-80
2023/04/28 09:28:39;;;;;;;3.67;2.47;;;13.40;89.80;;;;;;4990298;28;20490;-81
2023/04/28 09:31:04;;;;;;;2.40;2.20;;;13.30;89.20;;;;;;4971464;28;20182;-79
2023/04/28 09:33:30;;;;;;;3.83;2.83;;;13.30;90.10;;;;;;4993811;28;20417;-81
2023/04/28 09:35:56;;;;;;;2.60;2.00;;;13.20;91.20;;;;;;4978132;28;20383;-80
2023/04/28 09:38:22;;;;;;;2.50;2.30;;;13.20;92.30;;;;;;4979393;28;20178;-79
2023/04/28 09:40:57;;;;;;;4.27;3.60;;;13.20;93.50;;;;;;4970694;28;20183;-84
2023/04/28 09:43:29;;;;;;;3.20;2.73;;;13.20;93.30;;;;;;4994445;28;20491;-81
2023/04/28 09:45:57;;;;;;;1.57;1.50;;;13.10;93.70;;;;;;4976697;28;20425;-81
2023/04/28 09:48:27;;;;;;;5.93;3.20;;;13.10;94.00;;;;;;4997383;28;20422;-79
2023/04/28 09:50:58;;;;;;;2.37;2.00;;;13.00;93.80;;;;;;4976574;28;20516;-80
2023/04/28 09:53:23;;;;;;;2.87;2.67;;;13.00;95.20;;;;;;4978990;28;20431;-83
2023/04/28 09:55:52;;;;;;;5.80;4.13;;;13.00;95.60;;;;;;4966772;28;20476;-81
2023/04/28 09:58:23;;;;;;;2.90;2.53;;;12.90;94.50;;;;;;4987354;28;20220;-82
2023/04/28 10:00:54;;;;;;;5.93;3.60;;;12.90;95.60;;;;;;5014477;28;20606;-83
2023/04/28 10:03:24;;;;;;;7.23;2.80;;;12.90;96.60;;;;;;4982537;28;20417;-81
2023/04/28 10:05:52;;;;;;;3.93;2.37;;;13.00;97.30;;;;;;4983671;28;20429;-85
2023/04/28 10:08:21;;;;;;;2.90;2.70;;;13.10;97.20;;;;;;4985802;28;20429;-84
2023/04/28 10:10:53;;;;;;;2.90;2.67;;;13.10;97.10;;;;;;4980718;28;20439;-81
2023/04/28 10:13:20;;;;;;;7.40;4.00;;;13.00;96.40;;;;;;4990371;28;20433;-81
2023/04/28 10:15:46;;;;;;;2.53;2.33;;;13.00;96.30;;;;;;5002905;28;20461;-82
2023/04/28 10:18:13;;;;;;;4.13;3.40;;;13.00;96.80;;;;;;4998807;28;20422;-83
2023/04/28 10:20:42;;;;;;;8.93;3.83;;;13.00;97.30;;;;;;4978388;28;20433;-81
2023/04/28 10:23:53;;;;;;;6.10;3.60;;;13.10;97.30;;;;;;4982263;28;20496;-80
2023/04/28 10:26:20;;;;;;;10.07;1.80;;;13.10;97.30;;;;;;4962058;28;20480;-84
2023/04/28 10:28:47;;;;;;;5.73;2.90;;;13.10;96.80;;;;;;4998549;28;20428;-82
2023/04/28 10:31:15;;;;;;;4.27;2.87;;;13.00;97.30;;;;;;4990650;28;20476;-81
2023/04/28 10:33:41;;;;;;;5.37;2.60;;;13.10;97.30;;;;;;4989170;28;20447;-83
2023/04/28 10:36:07;;;;;;;5.07;3.30;;;13.10;97.30;;;;;;5001790;28;20556;-80
2023/04/28 10:38:34;;;;;;;4.50;2.20;;;13.10;97.30;;;;;;4974070;28;20457;-84
2023/04/28 10:41:01;;;;;;;5.83;3.53;;;13.00;97.30;;;;;;4992532;28;20412;-82
2023/04/28 10:43:38;;;;;;;3.53;2.77;;;13.10;97.30;;;;;;5001136;28;20956;-83
2023/04/28 10:46:10;;;;;;;7.73;3.47;;;13.00;97.30;;;;;;4989190;28;20416;-80
2023/04/28 10:48:47;;;;;;;4.40;2.80;;;13.00;97.30;;;;;;4982665;28;20417;-80
2023/04/28 10:51:13;;;;;;;9.90;2.97;;;13.00;97.30;;;;;;4992165;28;20468;-83
2023/04/28 10:53:42;;;;;;;2.07;1.97;;;13.00;97.30;;;;;;4989837;28;20448;-80
2023/04/28 10:56:07;;;;;;;6.37;2.27;;;13.00;97.30;;;;;;4992973;28;20599;-79
2023/04/28 10:58:35;;;;;;;4.87;3.53;;;13.10;97.30;;;;;;4998489;28;20414;-79
2023/04/28 11:01:25;;;;;;;5.63;3.83;;;13.00;97.30;;;;;;4998553;28;20170;-80
2023/04/28 11:04:10;;;;;;;2.30;2.10;;;12.80;97.30;;;;;;4993615;28;20424;-82
2023/04/28 11:06:44;;;;;;;1.80;1.70;;;12.70;97.30;;;;;;4979230;28;20417;-83
2023/04/28 11:09:19;;;;;;;4.67;3.53;;;12.80;97.30;;;;;;4994448;28;20462;-79
2023/04/28 11:12:00;;;;;;;11.50;3.53;;;12.80;97.30;;;;;;5003281;28;20484;-81
2023/04/28 11:14:28;;;;;;;5.93;3.37;;;12.70;97.30;;;;;;4978722;28;20900;-81
2023/04/28 11:16:58;;;;;;;3.60;2.60;;;12.70;97.30;;;;;;4988028;28;20420;-79
2023/04/28 11:19:26;;;;;;;5.87;2.47;;;12.60;97.30;;;;;;4983471;28;20844;-79
2023/04/28 11:21:53;;;;;;;3.60;3.50;;;12.60;97.30;;;;;;4995708;28;20444;-83
2023/04/28 11:24:19;;;;;;;6.83;2.80;;;12.60;97.30;;;;;;4978357;28;20965;-78
2023/04/28 11:26:44;;;;;;;9.83;3.67;;;12.60;97.30;;;;;;4974778;28;20867;-79
2023/04/28 11:29:11;;;;;;;5.33;3.40;;;12.60;97.30;;;;;;4988662;28;20184;-80
2023/04/28 11:31:37;;;;;;;3.13;2.90;;;12.70;97.30;;;;;;4977950;28;20251;-83
2023/04/28 11:34:05;;;;;;;4.07;2.60;;;12.70;97.30;;;;;;4975679;28;20417;-81
2023/04/28 11:36:36;;;;;;;3.53;3.07;;;12.60;97.30;;;;;;4982372;28;20431;-82
2023/04/28 11:39:03;;;;;;;5.90;2.13;;;12.60;97.30;;;;;;4976225;28;20433;-78
2023/04/28 11:41:30;;;;;;;9.03;5.07;;;12.80;97.30;;;;;;4984410;28;20503;-79
2023/04/28 11:43:56;;;;;;;3.93;2.30;;;12.80;97.30;;;;;;4977597;28;20421;-80
2023/04/28 11:46:24;;;;;;;2.47;2.30;;;12.80;97.30;;;;;;4992431;28;20418;-80
2023/04/28 11:49:00;;;;;;;6.70;3.33;;;12.80;97.30;;;;;;4983510;28;20236;-80
2023/04/28 11:51:37;;;;;;;12.43;3.53;;;12.80;97.30;;;;;;4984554;28;20833;-82
2023/04/28 11:54:06;;;;;;;5.90;4.27;;;12.90;97.30;;;;;;4989901;28;20409;-79
2023/04/28 11:56:40;;;;;;;3.27;2.37;;;12.90;97.30;;;;;;4979243;28;20421;-81
2023/04/28 11:59:09;;;;;;;5.10;3.80;;;13.00;97.30;;;;;;4984512;28;20410;-77
2023/04/28 12:01:45;;;;;;;4.77;3.20;;;13.10;97.30;;;;;;4994737;28;20467;-82
2023/04/28 12:04:38;;;;;;;3.10;2.37;;;13.10;97.30;;;;;;4969924;28;20428;-78
2023/04/28 12:07:15;;;;;;;4.73;2.60;;;13.20;97.30;;;;;;4983142;28;20438;-82
2023/04/28 12:09:42;;;;;;;4.00;3.17;;;13.40;97.30;;;;;;4994465;28;20432;-80
2023/04/28 12:12:29;;;;;;;4.03;3.47;;;13.50;97.30;;;;;;4976966;28;20517;-80
2023/04/28 12:15:00;;;;;;;5.33;4.20;;;13.60;97.30;;;;;;4972950;28;20510;-80
2023/04/28 12:17:38;;;;;;;8.10;4.60;;;13.80;97.30;;;;;;4974593;28;20428;-83
2023/04/28 12:20:06;;;;;;;3.20;2.60;;;13.90;97.30;;;;;;4978523;28;20475;-79
2023/04/28 12:22:47;;;;;;;3.60;3.07;;;14.10;97.30;;;;;;4975964;28;20468;-80
2023/04/28 12:25:18;;;;;;;5.77;4.57;;;14.30;97.30;;;;;;4980167;28;20424;-83
2023/04/28 12:28:06;;;;;;;6.57;3.10;;;14.40;97.30;;;;;;4977194;28;20432;-80
2023/04/28 12:30:40;;;;;;;4.23;2.93;;;14.40;97.30;;;;;;4981599;28;20421;-81
2023/04/28 12:33:24;;;;;;;9.33;4.40;;;14.40;97.30;;;;;;4980429;28;20543;-82
2023/04/28 12:35:51;;;;;;;7.90;3.67;;;14.40;97.30;;;;;;4976233;28;20563;-83
2023/04/28 12:38:17;;;;;;;3.20;3.00;;;14.50;97.30;;;;;;4975440;28;20960;-83
2023/04/28 12:40:43;;;;;;;3.17;2.93;;;14.50;97.30;;;;;;4992545;28;20467;-86
2023/04/28 12:43:08;;;;;;;3.70;3.40;;;14.50;97.30;;;;;;4993364;28;20523;-84
2023/04/28 12:45:34;;;;;;;4.77;2.60;;;14.50;97.30;;;;;;4976200;28;20178;-81
2023/04/28 12:48:00;;;;;;;2.80;2.60;;;14.60;97.30;;;;;;4979190;28;20318;-83
2023/04/28 12:50:26;;;;;;;8.73;2.90;;;14.60;97.30;;;;;;4993887;28;20667;-81